sensor_id;sensor_type;location;lat;lon;timestamp;P1;durP1;ratioP1;P2;durP2;ratioP2
19402;SDS011;9837;48.888;8.998;2022-10-17T03:14:15;9.80;;;2.30;;
19402;SDS011;9837;48.888;8.998;2022-10-17T03:16:41;3.77;;;2.13;;
19402;SDS011;9837;48.888;8.998;2022-10-17T03:19:06;3.30;;;2.40;;
19402;SDS011;9837;48.888;8.998;2022-10-17T03:21:32;4.27;;;2.10;;
19402;SDS011;9837;48.888;8.998;2022-10-17T03:24:00;3.33;;;2.40;;
19402;SDS011;9837;48.888;8.998;2022-10-17T03:26:26;4.37;;;2.30;;
19402;SDS011;9837;48.888;8.998;2022-10-17T03:28:53;3.80;;;2.60;;
19402;SDS011;9837;48.888;8.998;2022-10-17T03:31:19;9.77;;;2.47;;
19402;SDS011;9837;48.888;8.998;2022-10-17T03:33:45;4.13;;;2.37;;
19402;SDS011;9837;48.888;8.998;2022-10-17T03:36:12;6.00;;;2.40;;
19402;SDS011;9837;48.888;8.998;2022-10-17T03:38:40;4.70;;;3.20;;
19402;SDS011;9837;48.888;8.998;2022-10-17T03:41:07;6.97;;;2.20;;
19402;SDS011;9837;48.888;8.998;2022-10-17T03:43:33;4.37;;;2.43;;
19402;SDS011;9837;48.888;8.998;2022-10-17T03:45:59;3.00;;;2.50;;
19402;SDS011;9837;48.888;8.998;2022-10-17T03:48:26;5.33;;;2.67;;
19402;SDS011;9837;48.888;8.998;2022-10-17T03:51:00;2.67;;;2.20;;
19402;SDS011;9837;48.888;8.998;2022-10-17T03:53:27;3.50;;;2.50;;
19402;SDS011;9837;48.888;8.998;2022-10-17T03:55:53;4.73;;;2.40;;
19402;SDS011;9837;48.888;8.998;2022-10-17T03:58:19;5.23;;;2.23;;
19402;SDS011;9837;48.888;8.998;2022-10-17T04:00:44;6.80;;;2.80;;
19402;SDS011;9837;48.888;8.998;2022-10-17T04:03:10;7.53;;;2.70;;
19402;SDS011;9837;48.888;8.998;2022-10-17T04:05:35;6.70;;;2.37;;
19402;SDS011;9837;48.888;8.998;2022-10-17T04:08:01;5.37;;;3.00;;
19402;SDS011;9837;48.888;8.998;2022-10-17T04:10:27;2.60;;;2.40;;
19402;SDS011;9837;48.888;8.998;2022-10-17T04:12:53;4.63;;;2.60;;
19402;SDS011;9837;48.888;8.998;2022-10-17T04:15:19;3.37;;;2.43;;
19402;SDS011;9837;48.888;8.998;2022-10-17T04:17:44;5.17;;;2.40;;
19402;SDS011;9837;48.888;8.998;2022-10-17T04:20:10;5.93;;;2.20;;
19402;SDS011;9837;48.888;8.998;2022-10-17T04:22:36;4.13;;;2.33;;
19402;SDS011;9837;48.888;8.998;2022-10-17T04:25:02;6.47;;;2.50;;
19402;SDS011;9837;48.888;8.998;2022-10-17T04:27:28;4.63;;;2.83;;
19402;SDS011;9837;48.888;8.998;2022-10-17T04:29:54;6.40;;;2.60;;
19402;SDS011;9837;48.888;8.998;2022-10-17T04:32:20;3.00;;;2.23;;
19402;SDS011;9837;48.888;8.998;2022-10-17T04:34:48;6.90;;;2.20;;
19402;SDS011;9837;48.888;8.998;2022-10-17T04:37:14;5.93;;;2.70;;
19402;SDS011;9837;48.888;8.998;2022-10-17T04:39:40;6.93;;;3.20;;
19402;SDS011;9837;48.888;8.998;2022-10-17T04:42:05;4.13;;;2.60;;
19402;SDS011;9837;48.888;8.998;2022-10-17T04:44:31;11.17;;;2.97;;
19402;SDS011;9837;48.888;8.998;2022-10-17T04:46:59;7.93;;;2.60;;
19402;SDS011;9837;48.888;8.998;2022-10-17T04:49:25;5.57;;;2.67;;
19402;SDS011;9837;48.888;8.998;2022-10-17T04:51:50;9.57;;;2.50;;
19402;SDS011;9837;48.888;8.998;2022-10-17T04:54:16;7.93;;;2.53;;
19402;SDS011;9837;48.888;8.998;2022-10-17T04:56:42;2.30;;;2.10;;
19402;SDS011;9837;48.888;8.998;2022-10-17T04:59:07;6.47;;;2.87;;
19402;SDS011;9837;48.888;8.998;2022-10-17T05:01:33;6.40;;;2.50;;
19402;SDS011;9837;48.888;8.998;2022-10-17T05:03:59;2.83;;;2.40;;
19402;SDS011;9837;48.888;8.998;2022-10-17T05:06:25;6.43;;;2.57;;
19402;SDS011;9837;48.888;8.998;2022-10-17T05:08:56;6.80;;;2.97;;
19402;SDS011;9837;48.888;8.998;2022-10-17T05:11:23;3.37;;;2.67;;
19402;SDS011;9837;48.888;8.998;2022-10-17T05:13:51;5.37;;;3.27;;
19402;SDS011;9837;48.888;8.998;2022-10-17T05:16:23;3.80;;;2.60;;
19402;SDS011;9837;48.888;8.998;2022-10-17T05:18:50;5.30;;;2.37;;
19402;SDS011;9837;48.888;8.998;2022-10-17T05:21:18;4.10;;;2.50;;
19402;SDS011;9837;48.888;8.998;2022-10-17T05:23:44;5.93;;;2.70;;
19402;SDS011;9837;48.888;8.998;2022-10-17T05:26:10;4.63;;;2.43;;
19402;SDS011;9837;48.888;8.998;2022-10-17T05:28:36;3.50;;;2.20;;
19402;SDS011;9837;48.888;8.998;2022-10-17T05:31:02;5.43;;;2.70;;
19402;SDS011;9837;48.888;8.998;2022-10-17T05:33:29;2.80;;;2.13;;
19402;SDS011;9837;48.888;8.998;2022-10-17T05:35:55;5.23;;;2.50;;
19402;SDS011;9837;48.888;8.998;2022-10-17T05:38:21;4.13;;;2.40;;
19402;SDS011;9837;48.888;8.998;2022-10-17T05:40:47;5.23;;;2.73;;
19402;SDS011;9837;48.888;8.998;2022-10-17T05:43:12;4.27;;;2.43;;
19402;SDS011;9837;48.888;8.998;2022-10-17T05:45:38;4.67;;;2.30;;
19402;SDS011;9837;48.888;8.998;2022-10-17T05:48:04;4.10;;;2.30;;
19402;SDS011;9837;48.888;8.998;2022-10-17T05:50:30;3.00;;;2.20;;
19402;SDS011;9837;48.888;8.998;2022-10-17T05:52:56;4.37;;;2.43;;
19402;SDS011;9837;48.888;8.998;2022-10-17T05:55:22;3.47;;;3.17;;
19402;SDS011;9837;48.888;8.998;2022-10-17T05:57:48;3.60;;;2.60;;
19402;SDS011;9837;48.888;8.998;2022-10-17T06:00:14;8.17;;;2.43;;
19402;SDS011;9837;48.888;8.998;2022-10-17T06:02:40;3.00;;;2.30;;
19402;SDS011;9837;48.888;8.998;2022-10-17T06:05:07;6.33;;;2.53;;
19402;SDS011;9837;48.888;8.998;2022-10-17T06:07:34;5.40;;;3.00;;
19402;SDS011;9837;48.888;8.998;2022-10-17T06:10:00;2.80;;;2.20;;
19402;SDS011;9837;48.888;8.998;2022-10-17T06:12:25;7.90;;;2.20;;
19402;SDS011;9837;48.888;8.998;2022-10-17T06:14:51;10.43;;;2.63;;
19402;SDS011;9837;48.888;8.998;2022-10-17T06:17:16;8.23;;;2.60;;
19402;SDS011;9837;48.888;8.998;2022-10-17T06:19:42;3.93;;;2.40;;
19402;SDS011;9837;48.888;8.998;2022-10-17T06:22:08;7.47;;;2.90;;
19402;SDS011;9837;48.888;8.998;2022-10-17T06:24:34;3.73;;;2.40;;
19402;SDS011;9837;48.888;8.998;2022-10-17T06:27:00;7.63;;;2.97;;
19402;SDS011;9837;48.888;8.998;2022-10-17T06:29:25;8.40;;;2.50;;
19402;SDS011;9837;48.888;8.998;2022-10-17T06:31:51;3.63;;;2.53;;
19402;SDS011;9837;48.888;8.998;2022-10-17T06:34:17;7.43;;;2.83;;
19402;SDS011;9837;48.888;8.998;2022-10-17T06:36:42;6.77;;;2.73;;
19402;SDS011;9837;48.888;8.998;2022-10-17T06:39:08;3.97;;;2.77;;
19402;SDS011;9837;48.888;8.998;2022-10-17T06:41:34;9.10;;;2.90;;
19402;SDS011;9837;48.888;8.998;2022-10-17T06:43:59;6.60;;;2.70;;
19402;SDS011;9837;48.888;8.998;2022-10-17T06:46:25;7.57;;;2.77;;
19402;SDS011;9837;48.888;8.998;2022-10-17T06:48:53;7.87;;;2.67;;
19402;SDS011;9837;48.888;8.998;2022-10-17T06:51:19;4.97;;;2.50;;
19402;SDS011;9837;48.888;8.998;2022-10-17T06:53:44;3.77;;;2.63;;
19402;SDS011;9837;48.888;8.998;2022-10-17T06:56:11;6.63;;;3.30;;
19402;SDS011;9837;48.888;8.998;2022-10-17T06:58:37;5.93;;;2.90;;
19402;SDS011;9837;48.888;8.998;2022-10-17T07:01:05;6.03;;;3.50;;
19402;SDS011;9837;48.888;8.998;2022-10-17T07:03:35;9.93;;;2.80;;
19402;SDS011;9837;48.888;8.998;2022-10-17T07:06:02;4.73;;;2.63;;
19402;SDS011;9837;48.888;8.998;2022-10-17T07:08:28;2.83;;;2.17;;
19402;SDS011;9837;48.888;8.998;2022-10-17T07:10:54;3.60;;;2.30;;
19402;SDS011;9837;48.888;8.998;2022-10-17T07:13:19;8.50;;;2.23;;
19402;SDS011;9837;48.888;8.998;2022-10-17T07:15:45;10.80;;;2.33;;
19402;SDS011;9837;48.888;8.998;2022-10-17T07:18:11;2.33;;;2.00;;
19402;SDS011;9837;48.888;8.998;2022-10-17T07:20:37;8.37;;;2.33;;
19402;SDS011;9837;48.888;8.998;2022-10-17T07:23:03;3.23;;;2.00;;
19402;SDS011;9837;48.888;8.998;2022-10-17T07:25:29;4.53;;;2.50;;
19402;SDS011;9837;48.888;8.998;2022-10-17T07:27:54;3.20;;;2.40;;
19402;SDS011;9837;48.888;8.998;2022-10-17T07:30:20;2.30;;;1.90;;
19402;SDS011;9837;48.888;8.998;2022-10-17T07:32:46;3.77;;;1.87;;
19402;SDS011;9837;48.888;8.998;2022-10-17T07:35:12;7.00;;;2.90;;
19402;SDS011;9837;48.888;8.998;2022-10-17T07:37:38;7.43;;;2.00;;
19402;SDS011;9837;48.888;8.998;2022-10-17T07:40:05;2.43;;;1.80;;
19402;SDS011;9837;48.888;8.998;2022-10-17T07:42:36;3.60;;;1.80;;
19402;SDS011;9837;48.888;8.998;2022-10-17T07:45:02;3.37;;;1.73;;
19402;SDS011;9837;48.888;8.998;2022-10-17T07:47:28;2.93;;;2.13;;
19402;SDS011;9837;48.888;8.998;2022-10-17T07:49:55;3.50;;;2.07;;
19402;SDS011;9837;48.888;8.998;2022-10-17T07:52:21;5.33;;;2.50;;
19402;SDS011;9837;48.888;8.998;2022-10-17T07:54:47;3.23;;;1.80;;
19402;SDS011;9837;48.888;8.998;2022-10-17T07:57:12;2.70;;;2.20;;
19402;SDS011;9837;48.888;8.998;2022-10-17T07:59:38;3.47;;;2.17;;
19402;SDS011;9837;48.888;8.998;2022-10-17T08:02:04;6.70;;;3.00;;
19402;SDS011;9837;48.888;8.998;2022-10-17T08:04:32;9.50;;;3.13;;
19402;SDS011;9837;48.888;8.998;2022-10-17T08:06:58;3.10;;;2.10;;
19402;SDS011;9837;48.888;8.998;2022-10-17T08:09:24;4.20;;;2.00;;
19402;SDS011;9837;48.888;8.998;2022-10-17T08:11:50;6.27;;;2.03;;
19402;SDS011;9837;48.888;8.998;2022-10-17T08:14:15;2.97;;;2.37;;
19402;SDS011;9837;48.888;8.998;2022-10-17T08:16:41;2.37;;;2.17;;
19402;SDS011;9837;48.888;8.998;2022-10-17T08:19:07;2.10;;;1.90;;
19402;SDS011;9837;48.888;8.998;2022-10-17T08:21:35;5.87;;;2.90;;
19402;SDS011;9837;48.888;8.998;2022-10-17T08:24:01;4.13;;;2.20;;
19402;SDS011;9837;48.888;8.998;2022-10-17T08:26:27;3.73;;;2.10;;
19402;SDS011;9837;48.888;8.998;2022-10-17T08:28:53;2.13;;;1.93;;
19402;SDS011;9837;48.888;8.998;2022-10-17T08:31:19;2.90;;;2.50;;
19402;SDS011;9837;48.888;8.998;2022-10-17T08:33:46;6.97;;;2.40;;
19402;SDS011;9837;48.888;8.998;2022-10-17T08:36:14;6.57;;;2.50;;
19402;SDS011;9837;48.888;8.998;2022-10-17T08:38:40;7.77;;;2.50;;
19402;SDS011;9837;48.888;8.998;2022-10-17T08:46:48;1.97;;;1.77;;
19402;SDS011;9837;48.888;8.998;2022-10-17T08:52:01;2.23;;;2.03;;
19402;SDS011;9837;48.888;8.998;2022-10-17T08:57:07;3.73;;;2.10;;
19402;SDS011;9837;48.888;8.998;2022-10-17T08:59:39;2.63;;;1.70;;
19402;SDS011;9837;48.888;8.998;2022-10-17T09:02:17;7.57;;;2.17;;
19402;SDS011;9837;48.888;8.998;2022-10-17T09:05:24;4.50;;;2.20;;
19402;SDS011;9837;48.888;8.998;2022-10-17T09:22:10;8.50;;;3.27;;
19402;SDS011;9837;48.888;8.998;2022-10-17T09:53:44;7.07;;;2.70;;
19402;SDS011;9837;48.888;8.998;2022-10-17T15:15:52;8.60;;;2.70;;
19402;SDS011;9837;48.888;8.998;2022-10-17T15:18:18;8.30;;;2.90;;
19402;SDS011;9837;48.888;8.998;2022-10-17T15:20:44;3.22;;;1.95;;
19402;SDS011;9837;48.888;8.998;2022-10-17T15:23:10;6.57;;;2.30;;
19402;SDS011;9837;48.888;8.998;2022-10-17T15:25:36;3.55;;;2.00;;
19402;SDS011;9837;48.888;8.998;2022-10-17T15:28:03;7.05;;;2.55;;
19402;SDS011;9837;48.888;8.998;2022-10-17T15:30:30;10.65;;;2.75;;
19402;SDS011;9837;48.888;8.998;2022-10-17T15:32:59;7.47;;;2.13;;
19402;SDS011;9837;48.888;8.998;2022-10-17T15:35:25;6.32;;;2.15;;
19402;SDS011;9837;48.888;8.998;2022-10-17T15:37:51;5.40;;;2.58;;
19402;SDS011;9837;48.888;8.998;2022-10-17T15:40:21;5.20;;;2.00;;
19402;SDS011;9837;48.888;8.998;2022-10-17T15:42:48;6.07;;;2.10;;
19402;SDS011;9837;48.888;8.998;2022-10-17T15:45:15;4.68;;;2.50;;
19402;SDS011;9837;48.888;8.998;2022-10-17T15:47:46;7.88;;;2.10;;
19402;SDS011;9837;48.888;8.998;2022-10-17T15:50:18;4.93;;;2.30;;
19402;SDS011;9837;48.888;8.998;2022-10-17T15:52:45;8.18;;;2.38;;
19402;SDS011;9837;48.888;8.998;2022-10-17T15:55:13;3.83;;;2.10;;
19402;SDS011;9837;48.888;8.998;2022-10-17T15:57:40;9.47;;;2.23;;
19402;SDS011;9837;48.888;8.998;2022-10-17T16:00:17;5.73;;;2.10;;
19402;SDS011;9837;48.888;8.998;2022-10-17T16:02:45;4.27;;;2.40;;
19402;SDS011;9837;48.888;8.998;2022-10-17T16:05:23;6.97;;;2.70;;
19402;SDS011;9837;48.888;8.998;2022-10-17T16:07:50;5.57;;;2.70;;
19402;SDS011;9837;48.888;8.998;2022-10-17T16:10:17;3.10;;;2.67;;
19402;SDS011;9837;48.888;8.998;2022-10-17T16:12:43;4.40;;;2.60;;
19402;SDS011;9837;48.888;8.998;2022-10-17T16:15:13;8.87;;;2.67;;
19402;SDS011;9837;48.888;8.998;2022-10-17T16:17:42;10.13;;;2.83;;
19402;SDS011;9837;48.888;8.998;2022-10-17T16:20:08;6.03;;;2.40;;
19402;SDS011;9837;48.888;8.998;2022-10-17T16:22:35;8.40;;;3.07;;
19402;SDS011;9837;48.888;8.998;2022-10-17T16:25:05;6.20;;;2.40;;
19402;SDS011;9837;48.888;8.998;2022-10-17T16:27:44;7.47;;;2.80;;
19402;SDS011;9837;48.888;8.998;2022-10-17T16:30:10;11.50;;;2.87;;
19402;SDS011;9837;48.888;8.998;2022-10-17T16:32:36;5.47;;;2.60;;
19402;SDS011;9837;48.888;8.998;2022-10-17T16:35:02;8.63;;;2.80;;
19402;SDS011;9837;48.888;8.998;2022-10-17T16:37:28;5.07;;;2.57;;
19402;SDS011;9837;48.888;8.998;2022-10-17T16:39:54;5.13;;;2.63;;
19402;SDS011;9837;48.888;8.998;2022-10-17T16:42:20;3.87;;;2.57;;
19402;SDS011;9837;48.888;8.998;2022-10-17T16:44:46;4.10;;;2.30;;
19402;SDS011;9837;48.888;8.998;2022-10-17T16:47:15;6.07;;;2.43;;
19402;SDS011;9837;48.888;8.998;2022-10-17T16:49:41;6.80;;;2.30;;
19402;SDS011;9837;48.888;8.998;2022-10-17T16:52:07;6.43;;;2.70;;
19402;SDS011;9837;48.888;8.998;2022-10-17T16:54:33;10.80;;;3.00;;
19402;SDS011;9837;48.888;8.998;2022-10-17T16:56:59;7.70;;;2.67;;
19402;SDS011;9837;48.888;8.998;2022-10-17T16:59:25;6.20;;;3.00;;
19402;SDS011;9837;48.888;8.998;2022-10-17T17:01:51;9.53;;;3.37;;
19402;SDS011;9837;48.888;8.998;2022-10-17T17:04:17;11.83;;;3.20;;
19402;SDS011;9837;48.888;8.998;2022-10-17T17:06:42;7.83;;;3.17;;
19402;SDS011;9837;48.888;8.998;2022-10-17T17:09:26;9.13;;;3.53;;
19402;SDS011;9837;48.888;8.998;2022-10-17T17:12:00;11.17;;;3.20;;
19402;SDS011;9837;48.888;8.998;2022-10-17T17:14:40;7.40;;;3.77;;
19402;SDS011;9837;48.888;8.998;2022-10-17T17:17:11;11.67;;;4.37;;
19402;SDS011;9837;48.888;8.998;2022-10-17T17:19:53;6.60;;;3.63;;
19402;SDS011;9837;48.888;8.998;2022-10-17T17:22:24;12.47;;;3.40;;
19402;SDS011;9837;48.888;8.998;2022-10-17T17:24:56;8.80;;;3.60;;
19402;SDS011;9837;48.888;8.998;2022-10-17T17:27:25;8.40;;;3.43;;
19402;SDS011;9837;48.888;8.998;2022-10-17T17:29:57;6.97;;;3.30;;
19402;SDS011;9837;48.888;8.998;2022-10-17T17:32:23;5.23;;;3.70;;
19402;SDS011;9837;48.888;8.998;2022-10-17T17:34:49;9.27;;;4.13;;
19402;SDS011;9837;48.888;8.998;2022-10-17T17:37:15;7.00;;;4.30;;
19402;SDS011;9837;48.888;8.998;2022-10-17T17:39:41;11.63;;;4.90;;
19402;SDS011;9837;48.888;8.998;2022-10-17T17:42:07;9.10;;;4.40;;
19402;SDS011;9837;48.888;8.998;2022-10-17T17:44:33;6.37;;;4.00;;
19402;SDS011;9837;48.888;8.998;2022-10-17T17:46:59;6.03;;;4.30;;
19402;SDS011;9837;48.888;8.998;2022-10-17T17:49:26;10.17;;;3.90;;
19402;SDS011;9837;48.888;8.998;2022-10-17T17:51:52;5.57;;;4.20;;
19402;SDS011;9837;48.888;8.998;2022-10-17T17:54:18;9.73;;;3.67;;
19402;SDS011;9837;48.888;8.998;2022-10-17T17:56:47;10.77;;;4.40;;
19402;SDS011;9837;48.888;8.998;2022-10-17T17:59:13;6.63;;;4.17;;
19402;SDS011;9837;48.888;8.998;2022-10-17T18:01:39;9.13;;;4.17;;
19402;SDS011;9837;48.888;8.998;2022-10-17T18:04:05;6.93;;;4.90;;
19402;SDS011;9837;48.888;8.998;2022-10-17T18:06:32;14.20;;;4.13;;
19402;SDS011;9837;48.888;8.998;2022-10-17T18:09:01;8.67;;;4.00;;
19402;SDS011;9837;48.888;8.998;2022-10-17T18:11:28;11.00;;;6.13;;
19402;SDS011;9837;48.888;8.998;2022-10-17T18:13:55;9.73;;;6.23;;
19402;SDS011;9837;48.888;8.998;2022-10-17T18:16:28;7.70;;;6.70;;
19402;SDS011;9837;48.888;8.998;2022-10-17T18:18:58;12.40;;;8.70;;
19402;SDS011;9837;48.888;8.998;2022-10-17T18:21:29;15.10;;;10.07;;
19402;SDS011;9837;48.888;8.998;2022-10-17T18:23:55;11.57;;;8.90;;
19402;SDS011;9837;48.888;8.998;2022-10-17T18:26:24;11.00;;;6.60;;
19402;SDS011;9837;48.888;8.998;2022-10-17T18:28:50;9.43;;;6.40;;
19402;SDS011;9837;48.888;8.998;2022-10-17T18:31:20;9.90;;;6.13;;
19402;SDS011;9837;48.888;8.998;2022-10-17T18:33:56;9.80;;;4.53;;
19402;SDS011;9837;48.888;8.998;2022-10-17T18:36:27;11.17;;;4.20;;
19402;SDS011;9837;48.888;8.998;2022-10-17T18:38:58;8.57;;;4.27;;
19402;SDS011;9837;48.888;8.998;2022-10-17T18:41:27;17.80;;;4.40;;
19402;SDS011;9837;48.888;8.998;2022-10-17T18:43:54;6.20;;;5.03;;
19402;SDS011;9837;48.888;8.998;2022-10-17T18:46:27;17.77;;;4.47;;
19402;SDS011;9837;48.888;8.998;2022-10-17T18:49:23;6.63;;;3.63;;
19402;SDS011;9837;48.888;8.998;2022-10-17T18:51:49;7.00;;;4.67;;
19402;SDS011;9837;48.888;8.998;2022-10-17T18:54:21;6.97;;;4.77;;
19402;SDS011;9837;48.888;8.998;2022-10-17T18:56:49;8.83;;;4.17;;
19402;SDS011;9837;48.888;8.998;2022-10-17T18:59:19;11.83;;;5.10;;
19402;SDS011;9837;48.888;8.998;2022-10-17T19:01:46;7.03;;;4.40;;
19402;SDS011;9837;48.888;8.998;2022-10-17T19:04:12;8.57;;;4.73;;
19402;SDS011;9837;48.888;8.998;2022-10-17T19:06:38;10.03;;;4.00;;
19402;SDS011;9837;48.888;8.998;2022-10-17T19:09:08;8.37;;;4.13;;
19402;SDS011;9837;48.888;8.998;2022-10-17T19:11:38;8.20;;;4.13;;
19402;SDS011;9837;48.888;8.998;2022-10-17T19:14:05;7.37;;;3.50;;
19402;SDS011;9837;48.888;8.998;2022-10-17T19:16:37;7.53;;;4.20;;
19402;SDS011;9837;48.888;8.998;2022-10-17T19:19:14;15.83;;;4.00;;
19402;SDS011;9837;48.888;8.998;2022-10-17T19:21:45;5.10;;;3.60;;
19402;SDS011;9837;48.888;8.998;2022-10-17T19:24:15;10.90;;;4.20;;
19402;SDS011;9837;48.888;8.998;2022-10-17T19:26:46;9.13;;;4.23;;
19402;SDS011;9837;48.888;8.998;2022-10-17T19:29:17;5.47;;;4.47;;
19402;SDS011;9837;48.888;8.998;2022-10-17T19:31:44;10.90;;;4.23;;
19402;SDS011;9837;48.888;8.998;2022-10-17T19:34:12;8.17;;;4.03;;
19402;SDS011;9837;48.888;8.998;2022-10-17T19:36:39;10.10;;;4.53;;
19402;SDS011;9837;48.888;8.998;2022-10-17T19:39:06;18.30;;;4.47;;
19402;SDS011;9837;48.888;8.998;2022-10-17T19:41:36;9.00;;;4.07;;
19402;SDS011;9837;48.888;8.998;2022-10-17T19:44:02;6.50;;;4.00;;
19402;SDS011;9837;48.888;8.998;2022-10-17T19:46:28;8.53;;;4.57;;
19402;SDS011;9837;48.888;8.998;2022-10-17T19:48:58;9.13;;;4.27;;
19402;SDS011;9837;48.888;8.998;2022-10-17T19:51:24;7.93;;;3.10;;
19402;SDS011;9837;48.888;8.998;2022-10-17T19:53:53;8.13;;;4.33;;
19402;SDS011;9837;48.888;8.998;2022-10-17T19:56:23;8.53;;;4.33;;
19402;SDS011;9837;48.888;8.998;2022-10-17T19:58:55;11.93;;;4.17;;
19402;SDS011;9837;48.888;8.998;2022-10-17T20:01:22;9.57;;;3.80;;
19402;SDS011;9837;48.888;8.998;2022-10-17T20:03:50;6.17;;;3.93;;
19402;SDS011;9837;48.888;8.998;2022-10-17T20:06:16;8.90;;;3.53;;
19402;SDS011;9837;48.888;8.998;2022-10-17T20:08:42;5.80;;;3.87;;
19402;SDS011;9837;48.888;8.998;2022-10-17T20:11:13;5.67;;;3.83;;
19402;SDS011;9837;48.888;8.998;2022-10-17T20:13:44;6.37;;;4.00;;
19402;SDS011;9837;48.888;8.998;2022-10-17T20:16:13;6.97;;;4.30;;
19402;SDS011;9837;48.888;8.998;2022-10-17T20:18:41;6.30;;;4.20;;
19402;SDS011;9837;48.888;8.998;2022-10-17T20:21:09;8.47;;;3.97;;
19402;SDS011;9837;48.888;8.998;2022-10-17T20:23:37;8.50;;;3.97;;
19402;SDS011;9837;48.888;8.998;2022-10-17T20:26:05;6.30;;;4.27;;
19402;SDS011;9837;48.888;8.998;2022-10-17T20:28:34;4.10;;;3.33;;
19402;SDS011;9837;48.888;8.998;2022-10-17T20:31:00;8.27;;;3.63;;
19402;SDS011;9837;48.888;8.998;2022-10-17T20:33:26;7.10;;;3.60;;
19402;SDS011;9837;48.888;8.998;2022-10-17T20:35:52;7.87;;;4.03;;
19402;SDS011;9837;48.888;8.998;2022-10-17T20:38:19;9.80;;;4.50;;
19402;SDS011;9837;48.888;8.998;2022-10-17T20:40:45;4.87;;;3.77;;
19402;SDS011;9837;48.888;8.998;2022-10-17T20:43:11;5.73;;;4.00;;
19402;SDS011;9837;48.888;8.998;2022-10-17T20:45:41;7.53;;;4.10;;
19402;SDS011;9837;48.888;8.998;2022-10-17T20:48:14;7.63;;;3.83;;
19402;SDS011;9837;48.888;8.998;2022-10-17T20:50:45;8.00;;;4.47;;
19402;SDS011;9837;48.888;8.998;2022-10-17T20:53:13;9.30;;;4.00;;
19402;SDS011;9837;48.888;8.998;2022-10-17T20:55:42;3.57;;;3.27;;
19402;SDS011;9837;48.888;8.998;2022-10-17T20:58:09;11.07;;;4.17;;
